Wetterdaten: Woche 30.05.16 - 05.06.16 (KW22)
Datum Zeit Temp. A. Feuchte A. Luftdruck Regen Wind Richtung Sonnenschein ET UV Solar Taupunkt Windchill Windben Empfang
30.05.2016 00:00 17,0 C 81 % 1003,3 hPa 0,0 l/m 8,4 km/h (2 Bft) W-SW 0,00 h 0,000 mm 0,0 UV-I 0 W/m 13,8 C 16,0 C 13,0 km/h (3 Bft) 99,50 %
30.05.2016 01:00 15,5 C 88 % 1003,2 hPa 0,0 l/m 7,1 km/h (2 Bft) W-SW 0,00 h 0,025 mm 0,0 UV-I 0 W/m 13,4 C 14,9 C 9,9 km/h (2 Bft) 97,69 %
30.05.2016 02:00 14,7 C 90 % 1003,4 hPa 0,0 l/m 5,0 km/h (1 Bft) W-SW 0,00 h 0,026 mm 0,0 UV-I 0 W/m 13,0 C 14,5 C 7,7 km/h (2 Bft) 99,53 %
30.05.2016 03:00 14,5 C 89 % 1003,3 hPa 0,0 l/m 5,5 km/h (1 Bft) SW 0,00 h 0,000 mm 0,0 UV-I 0 W/m 12,8 C 14,5 C 7,6 km/h (2 Bft) 97,44 %
30.05.2016 04:00 14,8 C 89 % 1003,6 hPa 0,0 l/m 4,6 km/h (1 Bft) SW 0,00 h 0,000 mm 0,0 UV-I 0 W/m 12,9 C 14,7 C 6,4 km/h (2 Bft) 99,07 %
30.05.2016 05:00 15,0 C 87 % 1004,2 hPa 0,0 l/m 4,8 km/h (1 Bft) W-SW 0,00 h 0,000 mm 0,0 UV-I 7 W/m 12,8 C 14,8 C 7,1 km/h (2 Bft) 97,30 %
30.05.2016 06:00 15,1 C 85 % 1004,5 hPa 0,0 l/m 6,0 km/h (2 Bft) SW 0,00 h 0,000 mm 0,0 UV-I 48 W/m 12,7 C 14,9 C 8,5 km/h (2 Bft) 98,92 %
30.05.2016 07:00 15,7 C 85 % 1004,9 hPa 0,0 l/m 3,5 km/h (1 Bft) SW 0,00 h 0,025 mm 0,5 UV-I 137 W/m 13,1 C 15,7 C 5,1 km/h (1 Bft) 95,74 %
30.05.2016 08:00 16,8 C 80 % 1005,4 hPa 0,0 l/m 8,4 km/h (2 Bft) SW 0,28 h 0,076 mm 0,8 UV-I 230 W/m 13,2 C 15,7 C 12,4 km/h (3 Bft) 98,99 %
30.05.2016 09:00 17,1 C 78 % 1005,5 hPa 0,0 l/m 9,2 km/h (2 Bft) SW 0,38 h 0,153 mm 1,8 UV-I 349 W/m 13,3 C 15,8 C 13,7 km/h (3 Bft) 93,52 %
30.05.2016 10:00 17,7 C 77 % 1005,7 hPa 0,0 l/m 6,5 km/h (2 Bft) W-SW 0,97 h 0,203 mm 3,3 UV-I 525 W/m 13,5 C 17,2 C 10,7 km/h (2 Bft) 90,86 %
30.05.2016 11:00 18,7 C 71 % 1005,8 hPa 0,0 l/m 7,4 km/h (2 Bft) S-SW 0,77 h 0,305 mm 4,2 UV-I 611 W/m 13,4 C 18,1 C 11,8 km/h (2 Bft) 86,43 %
30.05.2016 12:00 19,2 C 69 % 1005,8 hPa 0,0 l/m 5,6 km/h (1 Bft) S-SO 0,53 h 0,381 mm 3,8 UV-I 493 W/m 13,4 C 19,0 C 9,8 km/h (2 Bft) 78,46 %
30.05.2016 13:00 19,8 C 67 % 1005,7 hPa 0,0 l/m 3,7 km/h (1 Bft) O-SO 0,37 h 0,305 mm 3,8 UV-I 493 W/m 13,4 C 19,8 C 6,0 km/h (2 Bft) 97,30 %
30.05.2016 14:00 20,9 C 64 % 1005,5 hPa 0,0 l/m 6,3 km/h (2 Bft) O-SO 1,00 h 0,304 mm 4,8 UV-I 662 W/m 13,9 C 20,5 C 10,0 km/h (2 Bft) 98,48 %
30.05.2016 15:00 21,1 C 65 % 1005,4 hPa 0,0 l/m 4,7 km/h (1 Bft) O-NO 0,18 h 0,432 mm 2,3 UV-I 327 W/m 14,1 C 21,0 C 7,3 km/h (2 Bft) 98,07 %
30.05.2016 16:00 20,9 C 63 % 1005,4 hPa 0,0 l/m 4,5 km/h (1 Bft) S 0,00 h 0,229 mm 1,6 UV-I 252 W/m 13,6 C 20,8 C 7,0 km/h (2 Bft) 99,22 %
30.05.2016 17:00 20,4 C 66 % 1005,4 hPa 0,0 l/m 4,2 km/h (1 Bft) W 0,20 h 0,178 mm 1,2 UV-I 231 W/m 13,8 C 20,4 C 6,7 km/h (2 Bft) 98,23 %
30.05.2016 18:00 19,6 C 71 % 1005,4 hPa 0,0 l/m 8,4 km/h (2 Bft) SW 0,65 h 0,152 mm 0,7 UV-I 259 W/m 14,2 C 18,7 C 12,5 km/h (3 Bft) 98,30 %
30.05.2016 19:00 18,2 C 80 % 1005,7 hPa 0,0 l/m 6,5 km/h (2 Bft) W-SW 0,42 h 0,178 mm 0,0 UV-I 97 W/m 14,6 C 17,9 C 9,7 km/h (2 Bft) 98,24 %
30.05.2016 20:00 17,5 C 83 % 1006,3 hPa 0,0 l/m 4,3 km/h (1 Bft) W-SW 0,03 h 0,076 mm 0,0 UV-I 23 W/m 14,7 C 17,5 C 6,3 km/h (2 Bft) 97,79 %
30.05.2016 21:00 16,8 C 87 % 1006,7 hPa 0,0 l/m 6,1 km/h (2 Bft) SW 0,00 h 0,025 mm 0,0 UV-I 0 W/m 14,6 C 16,5 C 8,8 km/h (2 Bft) 97,71 %
30.05.2016 22:00 16,0 C 87 % 1007,3 hPa 0,6 l/m 13,6 km/h (3 Bft) SW 0,00 h 0,026 mm 0,0 UV-I 0 W/m 13,8 C 12,9 C 19,4 km/h (3 Bft) 98,52 %
30.05.2016 23:00 14,6 C 92 % 1008,1 hPa 2,2 l/m 12,8 km/h (3 Bft) SW 0,00 h 0,025 mm 0,0 UV-I 0 W/m 13,3 C 11,6 C 18,2 km/h (3 Bft) 98,28 %
31.05.2016 00:00 14,0 C 94 % 1008,5 hPa 4,0 l/m 10,8 km/h (2 Bft) SW 0,00 h 0,000 mm 0,0 UV-I 0 W/m 13,0 C 11,7 C 15,7 km/h (3 Bft) 98,02 %
31.05.2016 01:00 13,5 C 94 % 1008,6 hPa 4,6 l/m 7,7 km/h (2 Bft) S-SW 0,00 h 0,000 mm 0,0 UV-I 0 W/m 12,5 C 12,5 C 11,3 km/h (2 Bft) 98,22 %
31.05.2016 02:00 13,3 C 95 % 1008,4 hPa 4,8 l/m 8,6 km/h (2 Bft) S-SW 0,00 h 0,000 mm 0,0 UV-I 0 W/m 12,5 C 12,0 C 12,0 km/h (2 Bft) 98,59 %
31.05.2016 03:00 13,3 C 95 % 1008,2 hPa 1,0 l/m 6,0 km/h (2 Bft) SW 0,00 h 0,000 mm 0,0 UV-I 0 W/m 12,5 C 13,0 C 8,7 km/h (2 Bft) 98,66 %
31.05.2016 04:00 13,5 C 95 % 1008,3 hPa 0,2 l/m 5,5 km/h (1 Bft) SW 0,00 h 0,000 mm 0,0 UV-I 0 W/m 12,7 C 13,4 C 7,8 km/h (2 Bft) 98,86 %
31.05.2016 05:00 13,5 C 95 % 1008,4 hPa 1,4 l/m 5,4 km/h (1 Bft) SW 0,00 h 0,000 mm 0,0 UV-I 6 W/m 12,8 C 13,4 C 7,9 km/h (2 Bft) 97,14 %
31.05.2016 06:00 13,4 C 96 % 1008,5 hPa 0,4 l/m 6,3 km/h (2 Bft) S-SW 0,00 h 0,000 mm 0,0 UV-I 22 W/m 12,7 C 13,1 C 9,3 km/h (2 Bft) 98,20 %
31.05.2016 07:00 13,7 C 95 % 1008,7 hPa 0,2 l/m 8,2 km/h (2 Bft) W-SW 0,00 h 0,025 mm 0,0 UV-I 58 W/m 12,8 C 12,6 C 12,0 km/h (2 Bft) 98,33 %
31.05.2016 08:00 14,3 C 94 % 1009,1 hPa 0,0 l/m 6,2 km/h (2 Bft) SW 0,00 h 0,026 mm 0,7 UV-I 136 W/m 13,3 C 13,8 C 9,0 km/h (2 Bft) 99,00 %
31.05.2016 09:00 14,6 C 93 % 1009,5 hPa 0,2 l/m 8,3 km/h (2 Bft) W-SW 0,00 h 0,076 mm 1,0 UV-I 191 W/m 13,5 C 13,5 C 12,6 km/h (3 Bft) 98,29 %
31.05.2016 10:00 15,1 C 92 % 1009,7 hPa 0,0 l/m 10,5 km/h (2 Bft) W-SW 0,05 h 0,102 mm 1,9 UV-I 318 W/m 13,9 C 13,1 C 15,5 km/h (3 Bft) 98,69 %
31.05.2016 11:00 15,7 C 90 % 1010,0 hPa 0,2 l/m 11,0 km/h (2 Bft) W-SW 0,18 h 0,177 mm 2,3 UV-I 347 W/m 14,1 C 13,5 C 16,7 km/h (3 Bft) 98,25 %
31.05.2016 12:00 16,5 C 86 % 1010,4 hPa 0,0 l/m 13,2 km/h (3 Bft) W-SW 0,75 h 0,204 mm 5,0 UV-I 704 W/m 14,1 C 13,8 C 19,6 km/h (3 Bft) 98,51 %
31.05.2016 13:00 17,6 C 80 % 1010,4 hPa 0,2 l/m 16,3 km/h (3 Bft) W-SW 0,62 h 0,381 mm 5,6 UV-I 811 W/m 14,2 C 14,1 C 23,5 km/h (4 Bft) 98,01 %
31.05.2016 14:00 16,8 C 80 % 1010,5 hPa 0,0 l/m 17,1 km/h (3 Bft) W-SW 0,18 h 0,482 mm 2,6 UV-I 343 W/m 13,2 C 12,8 C 24,3 km/h (4 Bft) 98,16 %
31.05.2016 15:00 16,7 C 77 % 1010,7 hPa 0,0 l/m 16,4 km/h (3 Bft) SW 0,15 h 0,229 mm 2,3 UV-I 356 W/m 12,8 C 13,0 C 23,6 km/h (4 Bft) 98,28 %
31.05.2016 16:00 16,6 C 78 % 1010,6 hPa 0,0 l/m 13,9 km/h (3 Bft) W-SW 0,00 h 0,228 mm 1,3 UV-I 222 W/m 12,7 C 13,5 C 20,1 km/h (4 Bft) 97,75 %
31.05.2016 17:00 16,1 C 79 % 1010,5 hPa 0,0 l/m 13,1 km/h (3 Bft) W-SW 0,00 h 0,153 mm 0,7 UV-I 152 W/m 12,5 C 13,2 C 19,2 km/h (3 Bft) 97,96 %
31.05.2016 18:00 15,3 C 80 % 1010,3 hPa 0,0 l/m 9,7 km/h (2 Bft) W-SW 0,00 h 0,127 mm 0,0 UV-I 44 W/m 11,8 C 13,6 C 14,4 km/h (3 Bft) 97,99 %
31.05.2016 19:00 14,9 C 83 % 1010,4 hPa 0,0 l/m 5,1 km/h (1 Bft) W-SW 0,00 h 0,051 mm 0,0 UV-I 24 W/m 12,1 C 14,8 C 7,4 km/h (2 Bft) 99,32 %
31.05.2016 20:00 14,8 C 84 % 1010,6 hPa 0,0 l/m 5,5 km/h (1 Bft) W-SW 0,00 h 0,025 mm 0,0 UV-I 11 W/m 12,1 C 14,5 C 9,1 km/h (2 Bft) 96,57 %
31.05.2016 21:00 13,7 C 90 % 1011,0 hPa 0,0 l/m 3,7 km/h (1 Bft) W-SW 0,00 h 0,025 mm 0,0 UV-I 0 W/m 12,0 C 13,3 C 6,0 km/h (2 Bft) 98,95 %
31.05.2016 22:00 13,5 C 91 % 1011,0 hPa 0,0 l/m 1,5 km/h (1 Bft) W-SW 0,00 h 0,000 mm 0,0 UV-I 0 W/m 12,1 C 13,5 C 2,7 km/h (1 Bft) 97,20 %
31.05.2016 23:00 13,1 C 90 % 1011,2 hPa 0,0 l/m 4,4 km/h (1 Bft) W-SW 0,00 h 0,000 mm 0,0 UV-I 0 W/m 11,6 C 13,1 C 6,9 km/h (2 Bft) 99,13 %
01.06.2016 00:00 12,7 C 94 % 1011,2 hPa 1,4 l/m 4,3 km/h (1 Bft) W-SW 0,00 h 0,000 mm 0,0 UV-I 0 W/m 11,7 C 12,7 C 6,3 km/h (2 Bft) 97,95 %
01.06.2016 01:00 12,6 C 96 % 1011,1 hPa 0,8 l/m 3,9 km/h (1 Bft) SW 0,00 h 0,000 mm 0,0 UV-I 0 W/m 12,0 C 12,5 C 5,9 km/h (2 Bft) 98,86 %
01.06.2016 02:00 12,5 C 96 % 1010,8 hPa 1,8 l/m 6,7 km/h (2 Bft) S-SW 0,00 h 0,000 mm 0,0 UV-I 0 W/m 11,9 C 11,9 C 10,1 km/h (2 Bft) 97,13 %
01.06.2016 03:00 12,6 C 96 % 1010,6 hPa 1,0 l/m 6,9 km/h (2 Bft) S-SW 0,00 h 0,000 mm 0,0 UV-I 0 W/m 12,0 C 12,1 C 10,1 km/h (2 Bft) 99,38 %
01.06.2016 04:00 12,7 C 96 % 1010,2 hPa 0,8 l/m 8,7 km/h (2 Bft) SW 0,00 h 0,000 mm 0,0 UV-I 0 W/m 12,1 C 11,2 C 12,5 km/h (3 Bft) 97,50 %
01.06.2016 05:00 12,6 C 95 % 1010,2 hPa 0,2 l/m 11,0 km/h (2 Bft) SW 0,00 h 0,000 mm 0,0 UV-I 9 W/m 11,9 C 10,1 C 16,3 km/h (3 Bft) 99,23 %
01.06.2016 06:00 12,6 C 94 % 1010,3 hPa 0,0 l/m 10,3 km/h (2 Bft) SW 0,00 h 0,000 mm 0,0 UV-I 19 W/m 11,7 C 10,4 C 14,8 km/h (3 Bft) 98,25 %
01.06.2016 07:00 12,7 C 95 % 1010,5 hPa 0,0 l/m 7,2 km/h (2 Bft) W-SW 0,00 h 0,025 mm 0,0 UV-I 37 W/m 11,9 C 11,9 C 10,9 km/h (2 Bft) 99,17 %
01.06.2016 08:00 13,0 C 95 % 1010,7 hPa 1,2 l/m 6,8 km/h (2 Bft) SW 0,00 h 0,026 mm 0,8 UV-I 116 W/m 12,3 C 12,5 C 10,1 km/h (2 Bft) 97,41 %
01.06.2016 09:00 13,9 C 94 % 1010,9 hPa 0,0 l/m 7,6 km/h (2 Bft) SW 0,00 h 0,076 mm 0,8 UV-I 168 W/m 12,9 C 13,1 C 12,9 km/h (3 Bft) 98,74 %
01.06.2016 10:00 14,5 C 89 % 1010,9 hPa 0,0 l/m 13,6 km/h (3 Bft) SW 0,00 h 0,102 mm 1,3 UV-I 205 W/m 12,7 C 11,2 C 22,1 km/h (4 Bft) 99,42 %
01.06.2016 11:00 14,4 C 88 % 1011,2 hPa 0,0 l/m 12,5 km/h (3 Bft) W-SW 0,00 h 0,127 mm 1,0 UV-I 146 W/m 12,5 C 11,4 C 18,0 km/h (3 Bft) 98,72 %
01.06.2016 12:00 15,5 C 86 % 1011,2 hPa 0,0 l/m 13,1 km/h (3 Bft) W-SW 0,35 h 0,101 mm 3,2 UV-I 439 W/m 13,2 C 12,6 C 19,2 km/h (3 Bft) 97,71 %
01.06.2016 13:00 16,7 C 82 % 1011,2 hPa 0,0 l/m 14,0 km/h (3 Bft) SW 0,52 h 0,254 mm 3,2 UV-I 440 W/m 13,6 C 13,6 C 20,3 km/h (4 Bft) 98,40 %
01.06.2016 14:00 16,0 C 82 % 1011,0 hPa 0,0 l/m 12,9 km/h (3 Bft) SW 0,00 h 0,254 mm 1,0 UV-I 150 W/m 13,1 C 13,3 C 18,9 km/h (3 Bft) 97,47 %
01.06.2016 15:00 16,0 C 83 % 1010,9 hPa 0,0 l/m 10,1 km/h (2 Bft) SW 0,00 h 0,102 mm 0,6 UV-I 104 W/m 13,1 C 14,3 C 14,3 km/h (3 Bft) 98,97 %
01.06.2016 16:00 17,0 C 78 % 1010,8 hPa 0,0 l/m 11,7 km/h (2 Bft) W-SW 0,20 h 0,076 mm 1,3 UV-I 263 W/m 13,1 C 14,8 C 17,0 km/h (3 Bft) 97,65 %
01.06.2016 17:00 17,1 C 77 % 1010,6 hPa 0,0 l/m 11,4 km/h (2 Bft) W-SW 0,07 h 0,178 mm 0,9 UV-I 198 W/m 13,1 C 14,9 C 16,7 km/h (3 Bft) 98,37 %
01.06.2016 18:00 16,8 C 78 % 1010,6 hPa 0,0 l/m 9,1 km/h (2 Bft) W-SW 0,05 h 0,152 mm 0,5 UV-I 118 W/m 13,0 C 15,5 C 13,3 km/h (3 Bft) 97,53 %
01.06.2016 19:00 16,4 C 79 % 1010,6 hPa 0,0 l/m 8,1 km/h (2 Bft) W-SW 0,07 h 0,102 mm 0,0 UV-I 73 W/m 12,7 C 15,5 C 12,0 km/h (2 Bft) 98,74 %
01.06.2016 20:00 15,6 C 84 % 1010,8 hPa 0,0 l/m 4,4 km/h (1 Bft) W-SW 0,00 h 0,051 mm 0,0 UV-I 12 W/m 12,8 C 15,5 C 6,4 km/h (2 Bft) 97,92 %
01.06.2016 21:00 14,5 C 91 % 1010,9 hPa 0,0 l/m 2,5 km/h (1 Bft) W 0,00 h 0,025 mm 0,0 UV-I 0 W/m 13,0 C 14,5 C 3,8 km/h (1 Bft) 98,72 %
01.06.2016 22:00 14,2 C 90 % 1010,9 hPa 0,0 l/m 9,5 km/h (2 Bft) SW 0,00 h 0,000 mm 0,0 UV-I 0 W/m 12,7 C 12,5 C 13,6 km/h (3 Bft) 97,60 %
01.06.2016 23:00 13,6 C 93 % 1010,9 hPa 0,0 l/m 8,3 km/h (2 Bft) SW 0,00 h 0,025 mm 0,0 UV-I 0 W/m 12,5 C 12,4 C 12,1 km/h (2 Bft) 98,97 %
02.06.2016 00:00 13,4 C 94 % 1010,8 hPa 0,0 l/m 5,3 km/h (1 Bft) SW 0,00 h 0,000 mm 0,0 UV-I 0 W/m 12,5 C 13,3 C 7,3 km/h (2 Bft) 97,48 %
02.06.2016 01:00 13,3 C 94 % 1010,3 hPa 0,0 l/m 4,7 km/h (1 Bft) SW 0,00 h 0,000 mm 0,0 UV-I 0 W/m 12,4 C 13,3 C 6,5 km/h (2 Bft) 99,43 %
02.06.2016 02:00 13,4 C 94 % 1010,1 hPa 0,0 l/m 4,1 km/h (1 Bft) S 0,00 h 0,000 mm 0,0 UV-I 0 W/m 12,4 C 13,4 C 6,1 km/h (2 Bft) 97,74 %
02.06.2016 03:00 13,2 C 94 % 1009,7 hPa 1,2 l/m 5,4 km/h (1 Bft) S-SW 0,00 h 0,000 mm 0,0 UV-I 0 W/m 12,3 C 13,1 C 7,7 km/h (2 Bft) 99,50 %
02.06.2016 04:00 13,1 C 95 % 1009,6 hPa 1,6 l/m 3,8 km/h (1 Bft) S 0,00 h 0,000 mm 0,0 UV-I 0 W/m 12,4 C 13,0 C 5,9 km/h (2 Bft) 97,79 %
02.06.2016 05:00 13,0 C 96 % 1009,7 hPa 0,0 l/m 2,8 km/h (1 Bft) W 0,00 h 0,000 mm 0,0 UV-I 7 W/m 12,4 C 13,0 C 4,3 km/h (1 Bft) 99,22 %
02.06.2016 06:00 13,0 C 96 % 1009,7 hPa 0,0 l/m 5,2 km/h (1 Bft) SW 0,00 h 0,000 mm 0,0 UV-I 19 W/m 12,3 C 12,8 C 7,2 km/h (2 Bft) 97,95 %
02.06.2016 07:00 13,4 C 95 % 1009,8 hPa 0,0 l/m 5,1 km/h (1 Bft) S-SW 0,00 h 0,000 mm 0,5 UV-I 77 W/m 12,7 C 13,4 C 7,4 km/h (2 Bft) 98,63 %
02.06.2016 08:00 13,6 C 94 % 1010,1 hPa 3,8 l/m 6,0 km/h (2 Bft) S-SW 0,00 h 0,051 mm 0,4 UV-I 56 W/m 12,7 C 13,3 C 8,8 km/h (2 Bft) 97,30 %
02.06.2016 09:00 13,2 C 96 % 1010,2 hPa 3,6 l/m 6,9 km/h (2 Bft) S-SW 0,00 h 0,025 mm 0,0 UV-I 39 W/m 12,6 C 12,4 C 10,3 km/h (2 Bft) 99,49 %
02.06.2016 10:00 13,4 C 96 % 1010,4 hPa 2,8 l/m 3,4 km/h (1 Bft) S 0,00 h 0,026 mm 1,0 UV-I 97 W/m 12,8 C 13,3 C 5,7 km/h (1 Bft) 97,78 %
02.06.2016 11:00 14,8 C 94 % 1010,3 hPa 0,2 l/m 5,5 km/h (1 Bft) S 0,00 h 0,050 mm 2,2 UV-I 318 W/m 13,8 C 14,7 C 8,5 km/h (2 Bft) 99,15 %
02.06.2016 12:00 16,2 C 89 % 1009,9 hPa 0,0 l/m 6,1 km/h (2 Bft) S 0,18 h 0,178 mm 3,0 UV-I 414 W/m 14,5 C 15,8 C 9,5 km/h (2 Bft) 97,64 %
02.06.2016 13:00 16,5 C 86 % 1009,8 hPa 0,0 l/m 12,9 km/h (3 Bft) W-SW 0,53 h 0,229 mm 4,1 UV-I 608 W/m 14,1 C 13,8 C 18,5 km/h (3 Bft) 99,33 %
02.06.2016 14:00 16,8 C 84 % 1009,5 hPa 0,0 l/m 8,5 km/h (2 Bft) W-SW 0,90 h 0,355 mm 4,6 UV-I 669 W/m 14,2 C 15,7 C 12,9 km/h (3 Bft) 97,85 %
02.06.2016 15:00 18,2 C 78 % 1009,3 hPa 0,0 l/m 7,5 km/h (2 Bft) W-SW 1,00 h 0,381 mm 4,3 UV-I 738 W/m 14,3 C 17,5 C 11,7 km/h (2 Bft) 99,23 %
02.06.2016 16:00 19,0 C 71 % 1008,9 hPa 0,0 l/m 6,0 km/h (2 Bft) SW 1,00 h 0,432 mm 3,0 UV-I 639 W/m 13,7 C 18,7 C 9,6 km/h (2 Bft) 97,45 %
02.06.2016 17:00 18,9 C 72 % 1008,7 hPa 0,0 l/m 6,1 km/h (2 Bft) W-SW 0,55 h 0,381 mm 1,4 UV-I 328 W/m 13,8 C 18,6 C 9,6 km/h (2 Bft) 98,70 %
02.06.2016 18:00 16,6 C 82 % 1008,7 hPa 0,0 l/m 6,2 km/h (2 Bft) W-SW 0,27 h 0,203 mm 0,5 UV-I 120 W/m 13,4 C 16,3 C 9,2 km/h (2 Bft) 97,81 %
02.06.2016 19:00 16,5 C 83 % 1008,8 hPa 0,0 l/m 6,7 km/h (2 Bft) W-SW 0,55 h 0,077 mm 0,0 UV-I 124 W/m 13,6 C 16,2 C 9,6 km/h (2 Bft) 98,51 %
02.06.2016 20:00 15,3 C 88 % 1008,9 hPa 0,0 l/m 6,2 km/h (2 Bft) SW 0,03 h 0,076 mm 0,0 UV-I 21 W/m 13,2 C 14,9 C 8,8 km/h (2 Bft) 98,33 %
02.06.2016 21:00 14,0 C 92 % 1009,4 hPa 0,0 l/m 2,5 km/h (1 Bft) S 0,00 h 0,025 mm 0,0 UV-I 2 W/m 12,7 C 14,0 C 4,6 km/h (1 Bft) 98,44 %
02.06.2016 22:00 13,3 C 93 % 1009,4 hPa 0,0 l/m 3,0 km/h (1 Bft) S-SW 0,00 h 0,000 mm 0,0 UV-I 0 W/m 12,3 C 13,3 C 4,3 km/h (1 Bft) 97,90 %
02.06.2016 23:00 12,9 C 94 % 1009,5 hPa 0,0 l/m 3,6 km/h (1 Bft) S-SW 0,00 h 0,000 mm 0,0 UV-I 0 W/m 12,0 C 12,9 C 4,9 km/h (1 Bft) 99,01 %
03.06.2016 00:00 12,8 C 95 % 1009,5 hPa 0,0 l/m 4,6 km/h (1 Bft) S-SW 0,00 h 0,000 mm 0,0 UV-I 0 W/m 12,1 C 12,8 C 6,5 km/h (2 Bft) 97,54 %
03.06.2016 01:00 12,5 C 95 % 1009,2 hPa 0,0 l/m 4,0 km/h (1 Bft) S 0,00 h 0,000 mm 0,0 UV-I 0 W/m 11,8 C 12,5 C 5,5 km/h (1 Bft) 98,29 %
03.06.2016 02:00 12,2 C 96 % 1009,1 hPa 0,0 l/m 4,4 km/h (1 Bft) S-SW 0,00 h 0,000 mm 0,0 UV-I 0 W/m 11,5 C 12,2 C 5,8 km/h (2 Bft) 98,19 %
03.06.2016 03:00 12,3 C 95 % 1009,0 hPa 0,0 l/m 5,5 km/h (1 Bft) S-SW 0,00 h 0,000 mm 0,0 UV-I 0 W/m 11,6 C 12,3 C 7,5 km/h (2 Bft) 99,44 %
03.06.2016 04:00 12,3 C 96 % 1008,9 hPa 0,0 l/m 3,9 km/h (1 Bft) SW 0,00 h 0,000 mm 0,0 UV-I 0 W/m 11,6 C 12,3 C 5,5 km/h (1 Bft) 98,69 %
03.06.2016 05:00 12,4 C 96 % 1009,0 hPa 0,0 l/m 4,1 km/h (1 Bft) S-SW 0,00 h 0,000 mm 0,0 UV-I 14 W/m 11,7 C 12,3 C 5,5 km/h (1 Bft) 99,11 %
03.06.2016 06:00 12,9 C 96 % 1009,0 hPa 0,0 l/m 3,8 km/h (1 Bft) SW 0,00 h 0,000 mm 0,0 UV-I 63 W/m 12,2 C 12,9 C 5,3 km/h (1 Bft) 98,62 %
03.06.2016 07:00 14,1 C 94 % 1009,2 hPa 0,0 l/m 4,6 km/h (1 Bft) SW 0,00 h 0,025 mm 0,5 UV-I 148 W/m 13,1 C 14,0 C 6,5 km/h (2 Bft) 98,19 %
03.06.2016 08:00 15,6 C 90 % 1009,2 hPa 0,0 l/m 5,9 km/h (2 Bft) SW 0,68 h 0,077 mm 1,3 UV-I 328 W/m 14,0 C 15,4 C 8,9 km/h (2 Bft) 98,38 %
03.06.2016 09:00 17,0 C 83 % 1009,3 hPa 0,0 l/m 7,6 km/h (2 Bft) W-SW 0,68 h 0,177 mm 2,4 UV-I 458 W/m 14,2 C 16,3 C 11,8 km/h (2 Bft) 98,15 %
03.06.2016 10:00 17,9 C 81 % 1009,0 hPa 0,0 l/m 10,1 km/h (2 Bft) W-SW 0,70 h 0,254 mm 3,1 UV-I 499 W/m 14,5 C 16,2 C 14,7 km/h (3 Bft) 97,88 %
03.06.2016 11:00 18,7 C 76 % 1008,9 hPa 0,0 l/m 10,0 km/h (2 Bft) W-SW 0,67 h 0,305 mm 4,9 UV-I 738 W/m 14,4 C 17,3 C 15,0 km/h (3 Bft) 98,30 %
03.06.2016 12:00 17,9 C 82 % 1009,0 hPa 0,0 l/m 3,8 km/h (1 Bft) NW 0,37 h 0,432 mm 3,5 UV-I 451 W/m 14,8 C 17,8 C 7,0 km/h (2 Bft) 98,52 %
03.06.2016 13:00 18,7 C 78 % 1008,8 hPa 0,0 l/m 3,5 km/h (1 Bft) W-NW 0,70 h 0,254 mm 4,2 UV-I 586 W/m 14,7 C 18,6 C 6,4 km/h (2 Bft) 98,01 %
03.06.2016 14:00 19,3 C 72 % 1008,5 hPa 0,0 l/m 2,9 km/h (1 Bft) W 0,47 h 0,330 mm 3,5 UV-I 462 W/m 14,1 C 19,3 C 5,0 km/h (1 Bft) 98,97 %
03.06.2016 15:00 19,8 C 70 % 1008,3 hPa 0,0 l/m 4,3 km/h (1 Bft) W-SW 0,22 h 0,280 mm 2,7 UV-I 379 W/m 14,2 C 19,8 C 6,6 km/h (2 Bft) 97,97 %
03.06.2016 16:00 20,6 C 67 % 1007,9 hPa 0,0 l/m 2,5 km/h (1 Bft) S-SO 0,58 h 0,254 mm 2,6 UV-I 483 W/m 14,4 C 20,6 C 4,5 km/h (1 Bft) 98,46 %
03.06.2016 17:00 20,4 C 68 % 1007,7 hPa 0,0 l/m 1,4 km/h (1 Bft) N-NO 0,40 h 0,279 mm 1,3 UV-I 297 W/m 14,3 C 20,4 C 2,7 km/h (1 Bft) 97,98 %
03.06.2016 18:00 21,2 C 64 % 1007,7 hPa 0,0 l/m 2,2 km/h (1 Bft) O-NO 0,93 h 0,203 mm 0,7 UV-I 313 W/m 14,1 C 21,2 C 3,9 km/h (1 Bft) 98,90 %
03.06.2016 19:00 20,7 C 67 % 1007,9 hPa 0,0 l/m 1,5 km/h (1 Bft) NO 0,58 h 0,203 mm 0,0 UV-I 128 W/m 14,3 C 20,7 C 2,6 km/h (1 Bft) 97,49 %
03.06.2016 20:00 19,3 C 76 % 1008,1 hPa 0,0 l/m 0,9 km/h (0 Bft) O-SO 0,32 h 0,077 mm 0,0 UV-I 30 W/m 14,9 C 19,3 C 1,8 km/h (1 Bft) 98,80 %
03.06.2016 21:00 16,8 C 86 % 1008,6 hPa 0,0 l/m 0,6 km/h (0 Bft) S 0,00 h 0,025 mm 0,0 UV-I 0 W/m 14,4 C 16,8 C 1,3 km/h (1 Bft) 97,80 %
03.06.2016 22:00 15,8 C 88 % 1009,1 hPa 0,0 l/m 1,6 km/h (1 Bft) S 0,00 h 0,000 mm 0,0 UV-I 0 W/m 13,8 C 15,8 C 2,8 km/h (1 Bft) 98,16 %
03.06.2016 23:00 15,2 C 89 % 1009,3 hPa 0,0 l/m 2,4 km/h (1 Bft) S 0,00 h 0,000 mm 0,0 UV-I 0 W/m 13,5 C 15,2 C 4,0 km/h (1 Bft) 98,32 %
04.06.2016 00:00 14,7 C 90 % 1009,3 hPa 0,0 l/m 3,7 km/h (1 Bft) S 0,00 h 0,000 mm 0,0 UV-I 0 W/m 13,1 C 14,7 C 5,7 km/h (1 Bft) 98,94 %
04.06.2016 01:00 14,1 C 92 % 1009,3 hPa 0,0 l/m 3,5 km/h (1 Bft) S 0,00 h 0,000 mm 0,0 UV-I 0 W/m 12,8 C 14,1 C 4,7 km/h (1 Bft) 98,26 %
04.06.2016 02:00 13,8 C 93 % 1009,4 hPa 0,0 l/m 3,9 km/h (1 Bft) S 0,00 h 0,000 mm 0,0 UV-I 0 W/m 12,7 C 13,8 C 5,6 km/h (1 Bft) 99,31 %
04.06.2016 03:00 13,3 C 94 % 1009,5 hPa 0,0 l/m 3,4 km/h (1 Bft) S 0,00 h 0,000 mm 0,0 UV-I 0 W/m 12,4 C 13,3 C 4,7 km/h (1 Bft) 98,17 %
04.06.2016 04:00 13,4 C 95 % 1009,6 hPa 0,0 l/m 4,7 km/h (1 Bft) S-SW 0,00 h 0,000 mm 0,0 UV-I 0 W/m 12,6 C 13,4 C 6,5 km/h (2 Bft) 99,31 %
04.06.2016 05:00 13,8 C 94 % 1010,0 hPa 0,0 l/m 2,9 km/h (1 Bft) S-SW 0,00 h 0,000 mm 0,0 UV-I 25 W/m 12,9 C 13,8 C 4,3 km/h (1 Bft) 98,52 %
04.06.2016 06:00 14,3 C 94 % 1010,2 hPa 0,0 l/m 1,3 km/h (1 Bft) S-SW 0,07 h 0,025 mm 0,0 UV-I 80 W/m 13,4 C 14,3 C 2,3 km/h (1 Bft) 98,58 %
04.06.2016 07:00 15,2 C 93 % 1010,4 hPa 0,0 l/m 2,6 km/h (1 Bft) SW 0,05 h 0,051 mm 0,6 UV-I 155 W/m 14,1 C 15,2 C 3,9 km/h (1 Bft) 98,32 %
04.06.2016 08:00 16,5 C 88 % 1010,5 hPa 0,0 l/m 2,5 km/h (1 Bft) W-SW 0,58 h 0,076 mm 1,3 UV-I 295 W/m 14,6 C 16,5 C 4,2 km/h (1 Bft) 99,01 %
04.06.2016 09:00 18,2 C 81 % 1010,7 hPa 0,0 l/m 3,5 km/h (1 Bft) W-SW 0,93 h 0,153 mm 3,0 UV-I 555 W/m 14,9 C 18,2 C 6,1 km/h (2 Bft) 98,01 %
04.06.2016 10:00 19,4 C 76 % 1010,7 hPa 0,0 l/m 3,0 km/h (1 Bft) NW 0,85 h 0,305 mm 4,2 UV-I 653 W/m 15,0 C 19,4 C 5,2 km/h (1 Bft) 98,58 %
04.06.2016 11:00 20,4 C 72 % 1010,6 hPa 0,0 l/m 2,6 km/h (1 Bft) N-NW 0,78 h 0,381 mm 4,5 UV-I 536 W/m 15,1 C 20,4 C 4,9 km/h (1 Bft) 97,83 %
04.06.2016 12:00 22,1 C 66 % 1010,3 hPa 0,0 l/m 4,0 km/h (1 Bft) N-NO 0,93 h 0,355 mm 6,9 UV-I 997 W/m 15,5 C 22,1 C 7,1 km/h (2 Bft) 99,16 %
04.06.2016 13:00 22,3 C 62 % 1010,0 hPa 0,0 l/m 2,6 km/h (1 Bft) NW 0,90 h 0,610 mm 5,7 UV-I 767 W/m 14,6 C 22,3 C 4,9 km/h (1 Bft) 97,85 %
04.06.2016 14:00 22,8 C 59 % 1009,6 hPa 0,0 l/m 3,2 km/h (1 Bft) N-NO 0,85 h 0,482 mm 4,9 UV-I 691 W/m 14,4 C 22,8 C 5,4 km/h (1 Bft) 98,94 %
04.06.2016 15:00 23,4 C 55 % 1009,4 hPa 0,0 l/m 4,8 km/h (1 Bft) NO 0,83 h 0,432 mm 3,7 UV-I 584 W/m 13,7 C 23,3 C 7,4 km/h (2 Bft) 97,77 %
04.06.2016 16:00 22,4 C 61 % 1009,3 hPa 0,0 l/m 8,3 km/h (2 Bft) O 0,37 h 0,381 mm 1,4 UV-I 284 W/m 14,5 C 21,7 C 12,7 km/h (3 Bft) 99,28 %
04.06.2016 17:00 19,7 C 77 % 1009,7 hPa 0,0 l/m 6,0 km/h (2 Bft) O-SO 0,00 h 0,229 mm 0,5 UV-I 82 W/m 15,5 C 19,3 C 9,7 km/h (2 Bft) 97,69 %
04.06.2016 18:00 18,8 C 78 % 1009,7 hPa 0,0 l/m 2,9 km/h (1 Bft) O 0,00 h 0,076 mm 0,0 UV-I 76 W/m 15,0 C 18,8 C 4,9 km/h (1 Bft) 99,35 %
04.06.2016 19:00 17,9 C 75 % 1009,7 hPa 0,0 l/m 2,1 km/h (1 Bft) S-SO 0,00 h 0,051 mm 0,0 UV-I 62 W/m 13,4 C 17,9 C 4,2 km/h (1 Bft) 97,86 %
04.06.2016 20:00 17,1 C 80 % 1010,1 hPa 0,0 l/m 1,6 km/h (1 Bft) S-SW 0,00 h 0,051 mm 0,0 UV-I 17 W/m 13,6 C 17,1 C 2,6 km/h (1 Bft) 98,99 %
04.06.2016 21:00 15,9 C 85 % 1010,7 hPa 0,0 l/m 2,1 km/h (1 Bft) S-SW 0,00 h 0,025 mm 0,0 UV-I 0 W/m 13,4 C 15,9 C 3,8 km/h (1 Bft) 97,10 %
04.06.2016 22:00 15,6 C 86 % 1011,6 hPa 0,0 l/m 2,5 km/h (1 Bft) S 0,00 h 0,000 mm 0,0 UV-I 0 W/m 13,2 C 15,6 C 4,2 km/h (1 Bft) 98,65 %
04.06.2016 23:00 15,8 C 86 % 1011,8 hPa 0,0 l/m 5,5 km/h (1 Bft) S 0,00 h 0,000 mm 0,0 UV-I 0 W/m 13,5 C 15,6 C 7,5 km/h (2 Bft) 97,88 %
05.06.2016 00:00 15,6 C 90 % 1012,1 hPa 0,0 l/m 5,3 km/h (1 Bft) S-SW 0,00 h 0,000 mm 0,0 UV-I 0 W/m 14,0 C 15,6 C 8,0 km/h (2 Bft) 99,28 %
05.06.2016 01:00 15,8 C 91 % 1012,2 hPa 0,0 l/m 5,5 km/h (1 Bft) S-SW 0,00 h 0,000 mm 0,0 UV-I 0 W/m 14,4 C 15,7 C 8,1 km/h (2 Bft) 98,41 %
05.06.2016 02:00 15,6 C 91 % 1012,1 hPa 0,0 l/m 8,3 km/h (2 Bft) SW 0,00 h 0,000 mm 0,0 UV-I 0 W/m 14,2 C 14,6 C 11,9 km/h (2 Bft) 99,37 %
05.06.2016 03:00 15,2 C 92 % 1012,1 hPa 0,0 l/m 6,1 km/h (2 Bft) SW 0,00 h 0,000 mm 0,0 UV-I 0 W/m 13,9 C 15,0 C 9,1 km/h (2 Bft) 98,14 %
05.06.2016 04:00 15,0 C 91 % 1012,2 hPa 0,0 l/m 8,4 km/h (2 Bft) W-SW 0,00 h 0,000 mm 0,0 UV-I 0 W/m 13,5 C 13,9 C 12,1 km/h (2 Bft) 99,63 %
05.06.2016 05:00 14,9 C 91 % 1012,5 hPa 0,0 l/m 7,5 km/h (2 Bft) W-SW 0,48 h 0,000 mm 0,0 UV-I 33 W/m 13,5 C 14,2 C 11,0 km/h (2 Bft) 98,12 %
05.06.2016 06:00 15,4 C 91 % 1012,8 hPa 0,0 l/m 8,4 km/h (2 Bft) W-SW 0,07 h 0,025 mm 0,0 UV-I 82 W/m 13,8 C 14,3 C 12,5 km/h (3 Bft) 99,24 %
05.06.2016 07:00 16,4 C 88 % 1013,1 hPa 0,0 l/m 8,7 km/h (2 Bft) W-SW 0,13 h 0,051 mm 0,6 UV-I 150 W/m 14,4 C 15,3 C 12,9 km/h (3 Bft) 98,16 %
05.06.2016 08:00 16,5 C 88 % 1013,5 hPa 0,0 l/m 5,8 km/h (2 Bft) W 0,00 h 0,102 mm 0,7 UV-I 101 W/m 14,5 C 16,1 C 8,5 km/h (2 Bft) 98,91 %
05.06.2016 09:00 16,7 C 86 % 1013,9 hPa 0,0 l/m 4,2 km/h (1 Bft) W-SW 0,00 h 0,076 mm 0,7 UV-I 121 W/m 14,4 C 16,5 C 7,2 km/h (2 Bft) 98,30 %
05.06.2016 10:00 16,3 C 90 % 1014,3 hPa 0,4 l/m 4,2 km/h (1 Bft) W 0,00 h 0,076 mm 0,9 UV-I 155 W/m 14,6 C 16,3 C 6,9 km/h (2 Bft) 98,87 %
05.06.2016 11:00 16,2 C 92 % 1014,9 hPa 0,4 l/m 3,1 km/h (1 Bft) N-NW 0,00 h 0,102 mm 0,8 UV-I 120 W/m 14,9 C 16,1 C 6,0 km/h (2 Bft) 98,39 %
05.06.2016 12:00 16,0 C 94 % 1015,2 hPa 0,6 l/m 2,2 km/h (1 Bft) N-NW 0,00 h 0,076 mm 1,1 UV-I 148 W/m 15,1 C 16,0 C 4,1 km/h (1 Bft) 99,26 %
05.06.2016 13:00 16,7 C 90 % 1014,8 hPa 0,0 l/m 3,0 km/h (1 Bft) W 0,03 h 0,076 mm 2,2 UV-I 302 W/m 15,1 C 16,7 C 5,5 km/h (1 Bft) 97,64 %
05.06.2016 14:00 18,1 C 84 % 1014,3 hPa 0,0 l/m 4,5 km/h (1 Bft) SO 0,38 h 0,178 mm 2,9 UV-I 409 W/m 15,5 C 18,0 C 7,2 km/h (2 Bft) 98,97 %
05.06.2016 15:00 18,8 C 81 % 1014,2 hPa 0,0 l/m 4,2 km/h (1 Bft) O-SO 0,45 h 0,229 mm 2,8 UV-I 408 W/m 15,4 C 18,7 C 6,5 km/h (2 Bft) 98,52 %
05.06.2016 16:00 19,7 C 75 % 1013,9 hPa 0,0 l/m 2,6 km/h (1 Bft) O-SO 0,93 h 0,254 mm 2,7 UV-I 538 W/m 15,1 C 19,7 C 4,3 km/h (1 Bft) 98,78 %
05.06.2016 17:00 20,3 C 70 % 1013,8 hPa 0,0 l/m 2,0 km/h (1 Bft) W-NW 0,87 h 0,304 mm 1,6 UV-I 390 W/m 14,7 C 20,3 C 3,7 km/h (1 Bft) 98,42 %
05.06.2016 18:00 20,2 C 69 % 1014,0 hPa 0,2 l/m 1,9 km/h (1 Bft) NO 0,40 h 0,229 mm 0,8 UV-I 206 W/m 14,3 C 20,2 C 3,2 km/h (1 Bft) 98,30 %
05.06.2016 19:00 19,3 C 78 % 1014,1 hPa 0,0 l/m 0,3 km/h (0 Bft) O-SO 0,00 h 0,127 mm 0,0 UV-I 63 W/m 15,4 C 19,3 C 1,2 km/h (1 Bft) 98,33 %
05.06.2016 20:00 18,6 C 83 % 1014,4 hPa 0,0 l/m 0,5 km/h (0 Bft) O-SO 0,00 h 0,051 mm 0,0 UV-I 18 W/m 15,6 C 18,6 C 1,1 km/h (1 Bft) 98,15 %
05.06.2016 21:00 17,6 C 86 % 1015,3 hPa 0,0 l/m 0,9 km/h (0 Bft) O-SO 0,00 h 0,000 mm 0,0 UV-I 0 W/m 15,2 C 17,6 C 1,7 km/h (1 Bft) 98,56 %
05.06.2016 22:00 16,8 C 89 % 1015,6 hPa 0,0 l/m 1,7 km/h (1 Bft) O-SO 0,00 h 0,000 mm 0,0 UV-I 0 W/m 15,0 C 16,8 C 3,1 km/h (1 Bft) 98,84 %
05.06.2016 23:00 16,1 C 91 % 1016,2 hPa 0,2 l/m 2,7 km/h (1 Bft) SO 0,00 h 0,000 mm 0,0 UV-I 0 W/m 14,7 C 16,1 C 3,9 km/h (1 Bft) 98,41 %
Min-Datum _ 03.06.16 04.06.16 30.05.16 - 30.05.16 - - - - - 03.06.16 01.06.16 30.05.16 30.05.16
_ Min-Zeit 02:37 14:56 00:00 - 02:04 - - - - - 02:37 05:18 02:04 12:40
Minimum _ 12,1 C 51 % 1003,1 hPa - 0,0 km/h (0 Bft) - - - - - 11,3 C 7,7 C 0,0 km/h (0 Bft) 50,00 %
Max-Datum _ 04.06.16 01.06.16 05.06.16 31.05.16 31.05.16 - 30.05.16 04.06.16 31.05.16 31.05.16 04.06.16 04.06.16 31.05.16 30.05.16
_ Max-Zeit 15:11 03:28 23:34 02:02 13:45 - 18:20 13:00 13:00 13:40 12:38 15:11 14:05 00:00
Maximum _ 23,8 C 97 % 1016,6 hPa 4,8 l/m 22,7 km/h
W-SW (4 Bft)
- 0,05 h 0,610 mm 7,9 UV-I 1254 W/m 17,1 C 23,8 C 33,8 km/h
W-SW (5 Bft)
100,00 %
Durchschnitt _ 16,1 C 85 % 1009,7 hPa #42,2 l/m 6,0 km/h (2 Bft) SW #32:11 h #18,414 mm 2,2 UV-I 263 W/m 13,4 C 15,4 C 9,0 km/h (2 Bft) 98,12 %